createdAt,value
2019-05-07T00:01:34.134Z,29.50
2019-05-07T00:04:08.117Z,31.27
2019-05-07T00:06:43.290Z,31.10
2019-05-07T00:09:15.479Z,34.80
2019-05-07T00:11:48.541Z,32.17
2019-05-07T00:14:23.103Z,31.77
2019-05-07T00:16:57.015Z,31.40
2019-05-07T00:19:32.139Z,31.13
2019-05-07T00:22:04.556Z,30.73
2019-05-07T00:24:37.434Z,30.27
2019-05-07T00:27:10.212Z,30.23
2019-05-07T00:29:43.137Z,32.00
2019-05-07T00:32:15.985Z,32.30
2019-05-07T00:34:54.260Z,32.87
2019-05-07T00:37:58.920Z,31.97
2019-05-07T00:41:03.607Z,31.03
2019-05-07T00:43:39.824Z,31.43
2019-05-07T00:46:15.576Z,30.83
2019-05-07T00:48:49.522Z,31.17
2019-05-07T00:51:30.313Z,30.77
2019-05-07T00:54:04.300Z,30.83
2019-05-07T00:56:37.274Z,30.73
2019-05-07T00:59:10.345Z,30.57
2019-05-07T01:01:43.423Z,30.10
2019-05-07T01:04:16.429Z,31.70
2019-05-07T01:06:49.377Z,34.33
2019-05-07T01:09:22.908Z,34.43
2019-05-07T01:11:55.806Z,33.90
2019-05-07T01:14:29.551Z,33.83
2019-05-07T01:17:02.562Z,32.00
2019-05-07T01:19:35.686Z,32.97
2019-05-07T01:22:08.487Z,31.80
2019-05-07T01:24:42.913Z,31.23
2019-05-07T01:27:15.729Z,33.13
2019-05-07T01:29:48.767Z,32.40
2019-05-07T01:32:27.702Z,31.57
2019-05-07T01:35:06.053Z,32.13
2019-05-07T01:37:58.436Z,33.47
2019-05-07T01:40:32.364Z,33.17
2019-05-07T01:43:05.490Z,35.10
2019-05-07T01:45:49.090Z,37.20
2019-05-07T01:48:18.167Z,36.87
2019-05-07T01:50:52.567Z,36.03
2019-05-07T01:53:25.815Z,36.00
2019-05-07T01:55:58.715Z,34.50
2019-05-07T01:58:33.177Z,36.67
2019-05-07T02:01:06.484Z,34.10
2019-05-07T02:03:52.773Z,33.50
2019-05-07T02:06:34.021Z,34.37
2019-05-07T02:09:14.370Z,34.23
2019-05-07T02:11:49.716Z,33.13
2019-05-07T02:14:22.612Z,35.23
2019-05-07T02:16:55.387Z,34.23
2019-05-07T02:19:28.171Z,37.23
2019-05-07T02:22:02.757Z,38.43
2019-05-07T02:24:35.757Z,39.13
2019-05-07T02:27:08.551Z,39.47
2019-05-07T02:29:43.080Z,39.17
2019-05-07T02:32:15.998Z,37.93
2019-05-07T02:34:48.869Z,39.00
2019-05-07T02:37:33.940Z,38.77
2019-05-07T02:40:13.942Z,39.33
2019-05-07T02:42:45.212Z,35.70
2019-05-07T02:45:36.581Z,34.13
2019-05-07T02:48:12.763Z,34.83
2019-05-07T02:50:53.846Z,36.47
2019-05-07T02:53:33.738Z,37.73
2019-05-07T02:56:06.854Z,39.63
2019-05-07T02:58:39.583Z,41.90
2019-05-07T03:01:13.763Z,40.77
2019-05-07T03:03:47.027Z,40.97
2019-05-07T03:06:23.017Z,40.80
2019-05-07T03:08:54.606Z,37.73
2019-05-07T03:11:27.451Z,37.90
2019-05-07T03:14:02.965Z,38.57
2019-05-07T03:16:42.495Z,38.37
2019-05-07T03:19:13.069Z,39.30
2019-05-07T03:21:54.864Z,39.37
2019-05-07T03:24:52.936Z,37.87
2019-05-07T03:27:25.867Z,39.10
2019-05-07T03:30:25.556Z,39.63
2019-05-07T03:33:07.014Z,38.40
2019-05-07T03:35:46.150Z,38.70
2019-05-07T03:38:16.107Z,39.70
2019-05-07T03:40:49.091Z,39.13
2019-05-07T03:43:23.703Z,36.97
2019-05-07T03:46:05.163Z,36.53
2019-05-07T03:48:38.701Z,36.90
2019-05-07T03:51:13.270Z,38.20
2019-05-07T03:53:46.149Z,38.00
2019-05-07T03:56:18.945Z,38.73
2019-05-07T03:58:52.913Z,39.60
2019-05-07T04:01:25.969Z,37.40
2019-05-07T04:03:58.798Z,38.07
2019-05-07T04:06:33.243Z,37.00
2019-05-07T04:09:07.225Z,36.83
2019-05-07T04:11:43.071Z,36.60
2019-05-07T04:14:14.990Z,37.70
2019-05-07T04:16:47.766Z,36.80
2019-05-07T04:19:23.393Z,38.07
2019-05-07T04:21:55.577Z,37.23
2019-05-07T04:24:47.990Z,37.97
2019-05-07T04:27:26.621Z,37.33
2019-05-07T04:29:59.377Z,34.93
2019-05-07T04:32:38.850Z,36.43
2019-05-07T04:35:27.588Z,36.17
2019-05-07T04:38:03.416Z,34.43
2019-05-07T04:40:35.652Z,35.30
2019-05-07T04:43:08.525Z,36.00
2019-05-07T04:45:43.311Z,35.53
2019-05-07T04:48:16.041Z,38.03
2019-05-07T04:50:53.924Z,37.43
2019-05-07T04:53:28.810Z,35.17
2019-05-07T04:56:03.276Z,36.30
2019-05-07T04:58:36.483Z,36.30
2019-05-07T05:01:13.785Z,36.10
2019-05-07T05:03:46.158Z,36.57
2019-05-07T05:06:19.044Z,35.03
2019-05-07T05:08:55.394Z,35.30
2019-05-07T05:11:26.676Z,34.93
2019-05-07T05:14:02.552Z,35.00
2019-05-07T05:16:34.244Z,33.00
2019-05-07T05:19:07.358Z,32.47
2019-05-07T05:22:09.008Z,31.40
2019-05-07T05:24:44.727Z,30.80
2019-05-07T05:27:17.939Z,28.40
2019-05-07T05:29:52.033Z,30.40
2019-05-07T05:32:25.053Z,28.93
2019-05-07T05:34:59.630Z,29.33
2019-05-07T05:37:32.510Z,30.53
2019-05-07T05:40:08.917Z,29.63
2019-05-07T05:42:47.185Z,29.77
2019-05-07T05:45:42.648Z,28.60
2019-05-07T05:48:15.450Z,30.07
2019-05-07T05:51:06.753Z,29.03
2019-05-07T05:54:05.165Z,27.43
2019-05-07T05:56:46.919Z,28.67
2019-05-07T05:59:37.002Z,27.97
2019-05-07T06:02:22.665Z,28.90
2019-05-07T06:05:02.700Z,28.93
2019-05-07T06:07:42.607Z,29.70
2019-05-07T06:10:33.040Z,29.23
2019-05-07T06:13:20.059Z,27.73
2019-05-07T06:16:14.339Z,28.63
2019-05-07T06:19:06.874Z,28.67
2019-05-07T06:21:58.055Z,29.43
2019-05-07T06:24:45.710Z,28.27
2019-05-07T06:27:18.489Z,28.27
2019-05-07T06:29:52.433Z,27.50
2019-05-07T06:32:25.392Z,29.13
2019-05-07T06:34:58.224Z,29.73
2019-05-07T06:37:32.128Z,27.97
2019-05-07T06:40:37.355Z,27.27
2019-05-07T06:43:21.953Z,27.57
2019-05-07T06:45:56.585Z,29.00
2019-05-07T06:48:40.873Z,28.50
2019-05-07T06:51:04.133Z,28.73
2019-05-07T06:53:37.721Z,30.17
2019-05-07T06:56:12.202Z,28.73
2019-05-07T06:59:04.693Z,28.80
2019-05-07T07:01:52.994Z,28.93
2019-05-07T07:04:45.493Z,25.50
2019-05-07T07:07:30.958Z,27.07
2019-05-07T07:10:23.276Z,26.13
2019-05-07T07:12:56.246Z,23.50
2019-05-07T07:15:29.411Z,24.13
2019-05-07T07:18:03.258Z,26.43
2019-05-07T07:20:36.493Z,20.23
2019-05-07T07:23:11.701Z,19.13
2019-05-07T07:25:44.303Z,18.37
2019-05-07T07:28:17.054Z,14.67
2019-05-07T07:31:15.387Z,13.87
2019-05-07T07:33:48.922Z,20.03
2019-05-07T07:36:23.812Z,22.83
2019-05-07T07:38:56.713Z,23.43
2019-05-07T07:41:36.248Z,20.63
2019-05-07T07:44:10.062Z,21.73
2019-05-07T07:46:42.906Z,20.02
2019-05-07T07:49:15.768Z,21.30
2019-05-07T07:51:48.592Z,22.30
2019-05-07T07:54:22.634Z,22.30
2019-05-07T07:57:18.247Z,23.25
2019-05-07T08:00:16.972Z,24.00
2019-05-07T08:02:54.828Z,22.90
2019-05-07T08:05:27.887Z,23.18
2019-05-07T08:08:02.275Z,23.77
2019-05-07T08:10:35.401Z,23.50
2019-05-07T08:13:08.289Z,23.40
2019-05-07T08:15:42.970Z,23.67
2019-05-07T08:18:15.989Z,21.95
2019-05-07T08:20:48.924Z,20.05
2019-05-07T08:23:22.614Z,22.82
2019-05-07T08:25:55.702Z,23.87
2019-05-07T08:28:28.801Z,24.43
2019-05-07T08:31:32.041Z,20.95
2019-05-07T08:34:14.213Z,23.47
2019-05-07T08:36:47.403Z,24.07
2019-05-07T08:39:22.302Z,22.65
2019-05-07T08:41:55.474Z,22.10
2019-05-07T08:47:42.669Z,24.20
2019-05-07T08:50:15.921Z,23.62
2019-05-07T08:52:49.051Z,23.47
2019-05-07T08:55:22.037Z,21.37
2019-05-07T09:01:03.114Z,21.48
2019-05-07T09:03:42.905Z,21.60
2019-05-07T09:06:17.743Z,21.55
2019-05-07T09:08:52.563Z,21.33
2019-05-07T09:11:24.943Z,22.45
2019-05-07T09:13:57.739Z,21.07
2019-05-07T09:16:31.927Z,22.87
2019-05-07T09:19:05.645Z,23.50
2019-05-07T09:21:38.342Z,20.97
2019-05-07T09:24:12.753Z,21.02
2019-05-07T09:27:07.579Z,20.32
2019-05-07T09:30:06.103Z,22.20
2019-05-07T09:32:46.621Z,20.32
2019-05-07T09:35:25.954Z,17.27
2019-05-07T09:37:58.652Z,20.70
2019-05-07T09:40:32.030Z,19.32
2019-05-07T09:43:04.939Z,17.92
2019-05-07T09:45:38.742Z,17.73
2019-05-07T09:48:13.383Z,17.42
2019-05-07T09:50:46.122Z,17.75
2019-05-07T09:53:18.832Z,17.65
2019-05-07T09:55:51.680Z,19.00
2019-05-07T09:58:35.698Z,20.27
2019-05-07T10:01:01.933Z,20.45
2019-05-07T10:03:36.195Z,21.87
2019-05-07T10:06:08.953Z,19.07
2019-05-07T10:08:42.043Z,20.08
2019-05-07T10:11:22.545Z,19.32
2019-05-07T10:14:02.493Z,16.23
2019-05-07T10:16:43.079Z,17.17
2019-05-07T10:19:16.027Z,18.55
2019-05-07T10:21:48.838Z,16.45
2019-05-07T10:24:22.809Z,18.90
2019-05-07T10:26:56.934Z,16.80
2019-05-07T10:29:32.238Z,17.75
2019-05-07T10:32:05.190Z,18.40
2019-05-07T10:34:37.839Z,18.92
2019-05-07T10:37:12.010Z,18.75
2019-05-07T10:39:49.208Z,18.23
2019-05-07T10:42:22.710Z,16.32
2019-05-07T10:45:18.262Z,14.35
2019-05-07T10:48:02.429Z,16.10
2019-05-07T10:50:39.167Z,15.98
2019-05-07T10:53:12.424Z,13.40
2019-05-07T10:55:46.289Z,14.85
2019-05-07T10:58:19.088Z,12.65
2019-05-07T11:00:52.340Z,14.50
2019-05-07T11:03:25.199Z,14.15
2019-05-07T11:05:58.048Z,14.68
2019-05-07T11:08:32.975Z,12.55
2019-05-07T11:11:05.540Z,13.00
2019-05-07T11:13:38.253Z,12.63
2019-05-07T11:16:13.649Z,14.05
2019-05-07T11:18:48.179Z,14.25
2019-05-07T11:21:33.367Z,14.63
2019-05-07T11:24:05.990Z,12.15
2019-05-07T11:26:41.981Z,9.95
2019-05-07T11:29:14.948Z,10.72
2019-05-07T11:31:47.636Z,12.37
2019-05-07T11:34:21.987Z,12.93
2019-05-07T11:36:54.918Z,13.68
2019-05-07T11:39:27.615Z,10.85
2019-05-07T11:42:18.530Z,10.72
2019-05-07T11:44:52.143Z,11.95
2019-05-07T11:47:32.026Z,10.93
2019-05-07T11:50:17.430Z,10.85
2019-05-07T11:52:55.340Z,10.53
2019-05-07T11:55:27.983Z,10.70
2019-05-07T11:58:02.466Z,10.35
2019-05-07T12:00:49.246Z,11.60
2019-05-07T12:03:22.246Z,10.53
2019-05-07T12:05:54.853Z,11.85
2019-05-07T12:08:40.995Z,12.35
2019-05-07T12:11:02.623Z,13.10
2019-05-07T12:13:35.435Z,12.13
2019-05-07T12:16:08.116Z,12.98
2019-05-07T12:18:42.951Z,11.55
2019-05-07T12:21:20.226Z,12.35
2019-05-07T12:23:49.954Z,11.83
2019-05-07T12:26:22.613Z,13.08
2019-05-07T12:28:55.481Z,12.30
2019-05-07T12:31:46.481Z,12.15
2019-05-07T12:34:35.068Z,13.62
2019-05-07T12:37:07.751Z,13.58
2019-05-07T12:39:42.321Z,13.65
2019-05-07T12:42:14.976Z,13.28
2019-05-07T12:44:47.862Z,12.75
2019-05-07T12:47:22.351Z,12.05
2019-05-07T12:49:55.056Z,12.05
2019-05-07T12:52:52.974Z,12.68
2019-05-07T12:55:32.336Z,13.20
2019-05-07T12:58:04.925Z,13.00
2019-05-07T13:00:51.865Z,14.35
2019-05-07T13:03:46.611Z,13.85
2019-05-07T13:06:19.304Z,15.93
2019-05-07T13:08:52.270Z,15.20
2019-05-07T13:11:26.156Z,16.23
2019-05-07T13:13:58.831Z,16.90
2019-05-07T13:16:32.385Z,16.85
2019-05-07T13:19:05.301Z,15.90
2019-05-07T13:21:49.187Z,15.48
2019-05-07T13:24:16.551Z,14.93
2019-05-07T13:26:49.372Z,16.15
2019-05-07T13:29:22.303Z,16.15
2019-05-07T13:31:55.909Z,15.00
2019-05-07T13:34:28.732Z,15.60
2019-05-07T13:37:06.594Z,15.20
2019-05-07T13:39:46.940Z,16.65
2019-05-07T13:42:45.065Z,15.83
2019-05-07T13:45:25.682Z,14.03
2019-05-07T13:48:12.116Z,14.93
2019-05-07T13:50:45.456Z,14.18
2019-05-07T13:53:19.479Z,13.55
2019-05-07T13:55:52.101Z,14.28
2019-05-07T13:58:24.806Z,13.80
2019-05-07T14:01:11.969Z,14.65
2019-05-07T14:03:44.431Z,13.40
2019-05-07T14:06:36.740Z,12.45
2019-05-07T14:09:24.347Z,13.80
2019-05-07T14:11:57.466Z,13.38
2019-05-07T14:14:34.186Z,13.00
2019-05-07T14:17:05.203Z,13.20
2019-05-07T14:19:38.017Z,13.50
2019-05-07T14:22:17.949Z,13.22
2019-05-07T14:24:46.830Z,13.18
2019-05-07T14:27:19.690Z,12.25
2019-05-07T14:29:52.566Z,12.10
2019-05-07T14:32:31.635Z,12.33
2019-05-07T14:35:32.269Z,12.50
2019-05-07T14:38:13.904Z,13.15
2019-05-07T14:40:46.771Z,11.73
2019-05-07T14:43:28.934Z,12.13
2019-05-07T14:46:02.737Z,11.63
2019-05-07T14:48:36.379Z,10.80
2019-05-07T14:51:09.212Z,20.45
2019-05-07T14:53:43.726Z,10.95
2019-05-07T14:56:16.712Z,9.60
2019-05-07T14:58:51.560Z,9.33
2019-05-07T15:01:26.143Z,9.33
2019-05-07T15:04:02.164Z,10.30
2019-05-07T15:06:34.635Z,10.38
2019-05-07T15:09:07.431Z,8.83
2019-05-07T15:11:42.512Z,8.33
2019-05-07T15:14:15.671Z,8.25
2019-05-07T15:16:51.098Z,7.78
2019-05-07T15:19:24.013Z,9.50
2019-05-07T15:22:16.405Z,8.68
2019-05-07T15:24:49.152Z,8.33
2019-05-07T15:27:22.941Z,8.18
2019-05-07T15:29:55.853Z,7.90
2019-05-07T15:32:28.590Z,7.50
2019-05-07T15:35:02.735Z,7.87
2019-05-07T15:37:35.862Z,8.20
2019-05-07T15:40:10.662Z,7.97
2019-05-07T15:42:43.291Z,8.63
2019-05-07T15:45:16.477Z,18.07
2019-05-07T15:47:52.237Z,10.15
2019-05-07T15:50:28.081Z,7.50
2019-05-07T15:53:09.359Z,8.28
2019-05-07T15:55:42.102Z,7.62
2019-05-07T15:58:14.782Z,7.28
2019-05-07T16:00:47.469Z,6.85
2019-05-07T16:03:45.803Z,6.53
2019-05-07T16:06:18.617Z,6.22
2019-05-07T16:08:53.739Z,6.12
2019-05-07T16:11:26.749Z,6.40
2019-05-07T16:14:14.670Z,6.22
2019-05-07T16:16:47.769Z,6.55
2019-05-07T16:19:28.744Z,6.15
2019-05-07T16:22:05.989Z,6.12
2019-05-07T16:24:38.644Z,5.97
2019-05-07T16:27:12.109Z,6.70
2019-05-07T16:29:45.118Z,6.00
2019-05-07T16:32:19.558Z,5.92
2019-05-07T16:34:52.800Z,6.72
2019-05-07T16:37:25.697Z,6.83
2019-05-07T16:39:58.678Z,6.37
2019-05-07T16:42:32.683Z,5.85
2019-05-07T16:45:06.253Z,5.55
2019-05-07T16:47:39.039Z,5.62
2019-05-07T16:50:13.458Z,5.58
2019-05-07T16:52:46.335Z,5.67
2019-05-07T16:55:19.675Z,6.25
2019-05-07T16:58:02.057Z,5.97
2019-05-07T17:00:42.286Z,6.78
2019-05-07T17:03:21.024Z,7.08
2019-05-07T17:05:53.650Z,6.72
2019-05-07T17:08:57.025Z,5.83
2019-05-07T17:11:31.867Z,6.00
2019-05-07T17:14:06.495Z,9.93
2019-05-07T17:16:39.239Z,6.78
2019-05-07T17:19:15.258Z,6.15
2019-05-07T17:21:47.853Z,5.70
2019-05-07T17:24:22.217Z,6.05
2019-05-07T17:26:55.138Z,5.30
2019-05-07T17:29:27.978Z,6.12
2019-05-07T17:32:01.638Z,6.35
2019-05-07T17:34:36.150Z,5.78
2019-05-07T17:37:09.099Z,5.65
2019-05-07T17:39:42.591Z,6.30
2019-05-07T17:42:15.608Z,6.47
2019-05-07T17:44:48.584Z,7.72
2019-05-07T17:47:21.872Z,6.58
2019-05-07T17:49:54.671Z,6.47
2019-05-07T17:52:27.339Z,5.45
2019-05-07T17:55:02.118Z,6.42
2019-05-07T17:57:36.606Z,6.33
2019-05-07T18:00:10.174Z,6.95
2019-05-07T18:03:13.168Z,6.80
2019-05-07T18:05:46.359Z,7.33
2019-05-07T18:08:21.716Z,7.45
2019-05-07T18:10:57.410Z,9.15
2019-05-07T18:13:32.306Z,9.78
2019-05-07T18:16:12.229Z,24.72
2019-05-07T18:18:45.210Z,19.48
2019-05-07T18:21:18.189Z,13.30
2019-05-07T18:23:51.732Z,9.65
2019-05-07T18:26:30.437Z,9.43
2019-05-07T18:29:02.468Z,9.58
2019-05-07T18:32:00.744Z,7.42
2019-05-07T18:34:33.862Z,7.75
2019-05-07T18:37:06.558Z,6.05
2019-05-07T18:39:39.601Z,6.78
2019-05-07T18:42:12.676Z,6.53
2019-05-07T18:44:46.984Z,6.58
2019-05-07T18:47:22.171Z,5.97
2019-05-07T18:49:54.581Z,5.95
2019-05-07T18:52:27.516Z,5.80
2019-05-07T18:55:22.695Z,6.47
2019-05-07T18:57:55.605Z,6.40
2019-05-07T19:00:32.208Z,6.05
2019-05-07T19:03:05.046Z,6.80
2019-05-07T19:05:39.482Z,5.87
2019-05-07T19:08:14.175Z,6.47
2019-05-07T19:10:48.189Z,6.97
2019-05-07T19:13:22.244Z,6.87
2019-05-07T19:15:56.584Z,6.35
2019-05-07T19:18:32.481Z,6.67
2019-05-07T19:21:06.817Z,6.95
2019-05-07T19:23:39.756Z,7.37
2019-05-07T19:26:13.185Z,8.07
2019-05-07T19:28:46.211Z,7.63
2019-05-07T19:31:19.223Z,7.10
2019-05-07T19:33:52.593Z,7.10
2019-05-07T19:36:25.530Z,7.50
2019-05-07T19:39:01.962Z,7.80
2019-05-07T19:41:36.687Z,6.90
2019-05-07T19:44:09.467Z,6.43
2019-05-07T19:46:43.453Z,6.80
2019-05-07T19:49:17.330Z,7.00
2019-05-07T19:51:52.434Z,6.47
2019-05-07T19:54:25.242Z,7.20
2019-05-07T19:56:57.976Z,7.17
2019-05-07T19:59:32.645Z,7.50
2019-05-07T20:02:08.085Z,7.67
2019-05-07T20:04:42.650Z,7.00
2019-05-07T20:07:17.587Z,6.58
2019-05-07T20:09:52.313Z,7.57
2019-05-07T20:12:25.018Z,6.77
2019-05-07T20:14:58.727Z,7.23
2019-05-07T20:17:33.947Z,8.30
2019-05-07T20:20:07.267Z,7.60
2019-05-07T20:22:40.126Z,7.13
2019-05-07T20:25:18.981Z,7.10
2019-05-07T20:27:49.247Z,7.83
2019-05-07T20:30:22.889Z,9.30
2019-05-07T20:32:57.091Z,9.40
2019-05-07T20:35:29.975Z,7.83
2019-05-07T20:38:03.047Z,7.87
2019-05-07T20:40:35.965Z,9.07
2019-05-07T20:43:09.835Z,8.00
2019-05-07T20:45:45.917Z,8.60
2019-05-07T20:48:20.057Z,8.07
2019-05-07T20:50:52.809Z,7.73
2019-05-07T20:54:03.015Z,7.83
2019-05-07T20:56:37.272Z,7.07
2019-05-07T20:59:12.349Z,7.57
2019-05-07T21:01:44.807Z,7.60
2019-05-07T21:04:17.546Z,7.60
2019-05-07T21:06:52.379Z,7.20
2019-05-07T21:09:24.961Z,7.70
2019-05-07T21:11:57.740Z,7.10
2019-05-07T21:14:32.604Z,6.97
2019-05-07T21:17:05.695Z,7.00
2019-05-07T21:19:38.652Z,7.53
2019-05-07T21:22:13.254Z,7.53
2019-05-07T21:24:46.966Z,7.80
2019-05-07T21:27:19.898Z,6.50
2019-05-07T21:29:52.920Z,7.20
2019-05-07T21:32:25.682Z,7.00
2019-05-07T21:34:58.477Z,7.07
2019-05-07T21:37:32.646Z,7.53
2019-05-07T21:40:08.794Z,7.43
2019-05-07T21:42:42.565Z,7.60
2019-05-07T21:45:15.640Z,7.27
2019-05-07T21:47:48.314Z,7.60
2019-05-07T21:50:21.897Z,7.33
2019-05-07T21:52:59.821Z,7.50
2019-05-07T21:55:39.436Z,7.80
2019-05-07T21:58:32.865Z,6.93
2019-05-07T22:01:17.224Z,7.23
2019-05-07T22:03:54.397Z,7.53
2019-05-07T22:06:27.157Z,8.13
2019-05-07T22:09:02.130Z,7.50
2019-05-07T22:11:36.980Z,8.30
2019-05-07T22:14:09.709Z,7.13
2019-05-07T22:16:42.592Z,7.30
2019-05-07T22:19:15.429Z,6.73
2019-05-07T22:21:48.122Z,7.20
2019-05-07T22:24:22.455Z,7.33
2019-05-07T22:26:56.607Z,7.03
2019-05-07T22:29:29.238Z,7.20
2019-05-07T22:32:33.395Z,7.70
2019-05-07T22:35:22.673Z,8.00
2019-05-07T22:38:03.858Z,7.10
2019-05-07T22:40:38.622Z,7.13
2019-05-07T22:43:14.439Z,7.70
2019-05-07T22:45:47.504Z,7.37
2019-05-07T22:48:20.164Z,6.93
2019-05-07T22:50:52.957Z,7.53
2019-05-07T22:53:26.917Z,7.03
2019-05-07T22:55:59.707Z,6.63
2019-05-07T22:58:36.644Z,6.50
2019-05-07T23:01:12.961Z,6.50
2019-05-07T23:03:45.346Z,6.73
2019-05-07T23:06:18.292Z,6.13
2019-05-07T23:08:52.867Z,7.07
2019-05-07T23:11:25.469Z,6.93
2019-05-07T23:13:58.162Z,6.90
2019-05-07T23:16:32.433Z,6.33
2019-05-07T23:19:05.235Z,7.67
2019-05-07T23:21:39.733Z,6.70
2019-05-07T23:24:14.254Z,6.40
2019-05-07T23:26:50.455Z,6.97
2019-05-07T23:29:22.518Z,6.60
2019-05-07T23:31:56.729Z,6.70
2019-05-07T23:34:29.448Z,6.43
2019-05-07T23:37:02.573Z,6.10
2019-05-07T23:39:37.842Z,6.73
2019-05-07T23:42:15.234Z,6.43
2019-05-07T23:44:48.059Z,6.60
2019-05-07T23:47:22.622Z,6.57
2019-05-07T23:49:55.334Z,6.53
2019-05-07T23:52:29.723Z,6.93
2019-05-07T23:55:02.884Z,6.67
2019-05-07T23:57:36.850Z,6.77
